createdAt,value
2023-09-07T00:00:19.491Z,2.20
2023-09-07T00:06:30.057Z,2.30
2023-09-07T00:08:57.965Z,2.20
2023-09-07T00:11:25.876Z,2.30
2023-09-07T00:13:53.842Z,2.10
2023-09-07T00:16:21.856Z,2.38
2023-09-07T00:18:50.517Z,2.13
2023-09-07T00:21:18.575Z,2.03
2023-09-07T00:23:47.910Z,2.00
2023-09-07T00:26:16.239Z,2.45
2023-09-07T00:28:44.269Z,2.28
2023-09-07T00:31:12.302Z,2.10
2023-09-07T00:33:40.415Z,2.95
2023-09-07T00:36:08.378Z,2.40
2023-09-07T00:38:36.338Z,2.20
2023-09-07T00:41:05.738Z,2.08
2023-09-07T00:43:33.679Z,2.28
2023-09-07T00:46:01.707Z,2.20
2023-09-07T00:48:29.995Z,2.30
2023-09-07T00:50:58.232Z,2.30
2023-09-07T00:53:26.491Z,2.38
2023-09-07T00:55:54.454Z,2.30
2023-09-07T00:58:23.953Z,1.93
2023-09-07T01:00:52.137Z,2.40
2023-09-07T01:03:20.148Z,2.20
2023-09-07T01:05:53.233Z,2.20
2023-09-07T01:08:25.948Z,2.27
2023-09-07T01:10:54.828Z,1.90
2023-09-07T01:13:24.267Z,2.20
2023-09-07T01:15:52.706Z,2.23
2023-09-07T01:18:25.121Z,2.10
2023-09-07T01:20:54.880Z,2.33
2023-09-07T01:23:24.704Z,2.05
2023-09-07T01:25:53.561Z,2.20
2023-09-07T01:28:22.689Z,2.00
2023-09-07T01:30:50.640Z,2.10
2023-09-07T01:33:18.603Z,2.00
2023-09-07T01:35:47.574Z,2.07
2023-09-07T01:38:15.608Z,2.27
2023-09-07T01:40:44.926Z,2.30
2023-09-07T01:43:12.878Z,1.95
2023-09-07T01:45:40.921Z,2.35
2023-09-07T01:48:10.783Z,2.10
2023-09-07T01:50:38.812Z,2.43
2023-09-07T01:53:06.794Z,2.00
2023-09-07T01:55:34.878Z,1.85
2023-09-07T01:58:04.442Z,2.50
2023-09-07T02:00:32.375Z,2.27
2023-09-07T02:03:00.463Z,2.20
2023-09-07T02:05:28.543Z,2.70
2023-09-07T02:07:56.587Z,2.20
2023-09-07T02:10:25.929Z,2.23
2023-09-07T02:12:53.018Z,2.73
2023-09-07T02:15:22.425Z,2.20
2023-09-07T02:17:50.568Z,2.30
2023-09-07T02:20:20.086Z,2.27
2023-09-07T02:22:48.166Z,2.10
2023-09-07T02:25:16.147Z,2.30
2023-09-07T02:27:44.259Z,2.30
2023-09-07T02:30:12.764Z,2.00
2023-09-07T02:32:45.118Z,2.53
2023-09-07T02:35:13.142Z,2.30
2023-09-07T02:37:41.067Z,2.40
2023-09-07T02:40:10.766Z,2.30
2023-09-07T02:42:38.712Z,2.40
2023-09-07T02:45:07.776Z,2.47
2023-09-07T02:47:35.976Z,2.30
2023-09-07T02:50:06.604Z,2.03
2023-09-07T02:52:34.528Z,2.53
2023-09-07T02:55:02.526Z,2.30
2023-09-07T02:57:30.484Z,2.10
2023-09-07T02:59:58.539Z,2.40
2023-09-07T03:02:26.741Z,2.17
2023-09-07T03:04:56.273Z,2.13
2023-09-07T03:07:25.600Z,2.10
2023-09-07T03:09:54.247Z,2.00
2023-09-07T03:12:22.730Z,2.17
2023-09-07T03:14:51.550Z,2.13
2023-09-07T03:17:19.635Z,2.33
2023-09-07T03:19:47.756Z,2.30
2023-09-07T03:22:16.124Z,2.00
2023-09-07T03:24:45.805Z,2.40
2023-09-07T03:27:13.851Z,2.13
2023-09-07T03:29:41.806Z,2.43
2023-09-07T03:32:09.940Z,2.07
2023-09-07T03:34:38.029Z,2.03
2023-09-07T03:37:07.505Z,2.20
2023-09-07T03:39:35.687Z,2.37
2023-09-07T03:42:05.241Z,2.10
2023-09-07T03:44:33.199Z,2.17
2023-09-07T03:47:03.226Z,2.00
2023-09-07T03:49:31.330Z,1.93
2023-09-07T03:51:59.346Z,2.03
2023-09-07T03:54:27.303Z,1.80
2023-09-07T03:56:55.385Z,2.30
2023-09-07T03:59:24.742Z,2.00
2023-09-07T04:01:52.828Z,2.07
2023-09-07T04:04:21.258Z,1.80
2023-09-07T04:06:49.670Z,2.07
2023-09-07T04:09:17.606Z,2.13
2023-09-07T04:15:35.599Z,2.10
2023-09-07T04:18:03.617Z,2.27
2023-09-07T04:20:31.600Z,2.10
2023-09-07T04:22:59.546Z,2.20
2023-09-07T04:25:27.757Z,2.07
2023-09-07T04:27:57.812Z,1.90
2023-09-07T04:30:26.031Z,2.20
2023-09-07T04:32:55.463Z,2.13
2023-09-07T04:35:23.563Z,2.17
2023-09-07T04:37:51.612Z,1.77
2023-09-07T04:40:19.722Z,2.00
2023-09-07T04:42:47.662Z,2.13
2023-09-07T04:45:15.800Z,1.90
2023-09-07T04:47:43.775Z,2.13
2023-09-07T04:50:14.659Z,1.97
2023-09-07T04:52:42.682Z,1.87
2023-09-07T04:55:11.027Z,2.57
2023-09-07T04:57:39.289Z,1.90
2023-09-07T05:00:09.013Z,2.10
2023-09-07T05:02:41.509Z,2.67
2023-09-07T05:05:10.274Z,2.17
2023-09-07T05:07:39.604Z,1.90
2023-09-07T05:10:09.836Z,2.00
2023-09-07T05:12:37.976Z,2.00
2023-09-07T05:15:07.942Z,2.00
2023-09-07T05:17:36.038Z,1.90
2023-09-07T05:20:04.783Z,1.70
2023-09-07T05:22:35.510Z,2.20
2023-09-07T05:25:05.315Z,2.03
2023-09-07T05:27:33.297Z,2.20
2023-09-07T05:30:01.257Z,2.17
2023-09-07T05:32:29.215Z,2.47
2023-09-07T05:34:57.159Z,2.40
2023-09-07T05:37:25.137Z,2.67
2023-09-07T05:39:53.072Z,2.53
2023-09-07T05:42:22.526Z,2.83
2023-09-07T05:44:50.464Z,2.00
2023-09-07T05:47:18.852Z,3.23
2023-09-07T05:49:46.985Z,2.40
2023-09-07T05:52:15.008Z,2.27
2023-09-07T05:54:43.023Z,2.20
2023-09-07T05:57:11.110Z,2.40
2023-09-07T05:59:40.408Z,2.50
2023-09-07T06:02:09.031Z,2.30
2023-09-07T06:04:37.325Z,2.53
2023-09-07T06:07:05.602Z,2.37
2023-09-07T06:09:33.571Z,2.53
2023-09-07T06:12:01.533Z,2.60
2023-09-07T06:14:29.525Z,2.80
2023-09-07T06:16:58.968Z,2.43
2023-09-07T06:19:27.013Z,2.20
2023-09-07T06:21:54.990Z,3.00
2023-09-07T06:24:23.011Z,2.40
2023-09-07T06:26:51.117Z,2.47
2023-09-07T06:29:19.062Z,2.60
2023-09-07T06:31:47.135Z,2.83
2023-09-07T06:34:16.616Z,2.97
2023-09-07T06:36:48.320Z,3.00
2023-09-07T06:39:16.629Z,2.83
2023-09-07T06:41:47.634Z,2.50
2023-09-07T06:44:18.508Z,3.47
2023-09-07T06:46:46.582Z,3.00
2023-09-07T06:49:16.257Z,2.57
2023-09-07T06:51:44.221Z,2.50
2023-09-07T06:54:12.221Z,3.00
2023-09-07T06:56:40.194Z,2.50
2023-09-07T06:59:08.148Z,2.90
2023-09-07T07:01:36.724Z,2.57
2023-09-07T07:04:05.132Z,2.80
2023-09-07T07:06:34.636Z,3.07
2023-09-07T07:09:02.569Z,2.90
2023-09-07T07:11:30.545Z,2.90
2023-09-07T07:13:58.540Z,3.07
2023-09-07T07:16:26.637Z,3.13
2023-09-07T07:18:54.651Z,2.87
2023-09-07T07:21:22.643Z,3.20
2023-09-07T07:23:51.985Z,2.87
2023-09-07T07:26:19.943Z,2.70
2023-09-07T07:28:47.891Z,2.80
2023-09-07T07:31:15.931Z,2.80
2023-09-07T07:33:43.941Z,2.70
2023-09-07T07:36:11.961Z,3.03
2023-09-07T07:38:40.538Z,2.50
2023-09-07T07:41:09.987Z,3.30
2023-09-07T07:43:38.006Z,3.17
2023-09-07T07:46:06.227Z,3.13
2023-09-07T07:48:36.398Z,3.20
2023-09-07T07:51:05.334Z,3.33
2023-09-07T07:53:33.729Z,3.37
2023-09-07T07:56:01.994Z,3.40
2023-09-07T07:58:31.496Z,3.33
2023-09-07T08:01:00.147Z,3.10
2023-09-07T08:03:28.466Z,3.17
2023-09-07T08:05:56.579Z,3.03
2023-09-07T08:08:24.700Z,3.30
2023-09-07T08:10:52.864Z,2.87
2023-09-07T08:13:21.066Z,3.50
2023-09-07T08:15:50.487Z,3.23
2023-09-07T08:18:18.823Z,2.87
2023-09-07T08:20:46.961Z,3.70
2023-09-07T08:23:14.930Z,3.23
2023-09-07T08:25:47.656Z,3.40
2023-09-07T08:28:17.110Z,3.83
2023-09-07T08:30:45.105Z,3.40
2023-09-07T08:33:14.573Z,3.03
2023-09-07T08:35:45.349Z,2.77
2023-09-07T08:38:14.297Z,3.50
2023-09-07T08:40:43.021Z,3.00
2023-09-07T08:43:13.426Z,3.20
2023-09-07T08:45:44.687Z,3.23
2023-09-07T08:48:16.644Z,3.40
2023-09-07T08:50:45.158Z,3.20
2023-09-07T08:53:13.097Z,2.93
2023-09-07T08:55:41.110Z,3.10
2023-09-07T08:58:09.049Z,3.33
2023-09-07T09:00:37.118Z,3.60
2023-09-07T09:03:06.050Z,3.05
2023-09-07T09:05:36.794Z,4.10
2023-09-07T09:08:06.933Z,3.47
2023-09-07T09:10:35.852Z,3.60
2023-09-07T09:13:03.965Z,4.15
2023-09-07T09:15:31.931Z,3.22
2023-09-07T09:18:00.022Z,3.17
2023-09-07T09:20:28.667Z,2.92
2023-09-07T09:22:58.387Z,3.17
2023-09-07T09:25:27.839Z,3.38
2023-09-07T09:27:55.789Z,3.35
2023-09-07T09:30:23.725Z,3.22
2023-09-07T09:32:52.254Z,2.97
2023-09-07T09:35:20.362Z,3.25
2023-09-07T09:37:49.720Z,3.42
2023-09-07T09:40:19.514Z,3.20
2023-09-07T09:42:47.616Z,3.17
2023-09-07T09:45:15.581Z,3.05
2023-09-07T09:47:44.497Z,3.42
2023-09-07T09:50:13.794Z,3.30
2023-09-07T09:52:41.902Z,3.42
2023-09-07T09:55:14.184Z,3.58
2023-09-07T09:57:43.767Z,3.42
2023-09-07T10:00:22.659Z,3.33
2023-09-07T10:02:56.831Z,2.95
2023-09-07T10:05:27.196Z,3.00
2023-09-07T10:07:55.598Z,3.10
2023-09-07T10:10:23.719Z,3.38
2023-09-07T10:12:55.806Z,2.78
2023-09-07T10:15:28.521Z,2.95
2023-09-07T10:18:07.155Z,3.03
2023-09-07T10:20:50.273Z,2.65
2023-09-07T10:23:18.350Z,3.13
2023-09-07T10:25:50.513Z,2.78
2023-09-07T10:28:25.245Z,2.63
2023-09-07T10:31:04.707Z,3.00
2023-09-07T10:33:33.676Z,2.78
2023-09-07T10:36:02.651Z,2.70
2023-09-07T10:38:30.666Z,2.90
2023-09-07T10:40:59.897Z,2.63
2023-09-07T10:43:30.143Z,2.80
2023-09-07T10:45:59.941Z,3.00
2023-09-07T10:48:28.409Z,3.20
2023-09-07T10:50:56.562Z,2.78
2023-09-07T10:53:29.345Z,2.75
2023-09-07T10:55:59.700Z,2.85
2023-09-07T10:58:30.932Z,3.05
2023-09-07T11:00:59.904Z,2.67
2023-09-07T11:03:29.121Z,2.58
2023-09-07T11:05:59.103Z,2.50
2023-09-07T11:08:27.283Z,2.22
2023-09-07T11:10:55.227Z,2.72
2023-09-07T11:13:24.214Z,2.60
2023-09-07T11:15:56.060Z,2.40
2023-09-07T11:18:24.572Z,2.60
2023-09-07T11:20:53.741Z,2.80
2023-09-07T11:23:23.033Z,2.60
2023-09-07T11:25:53.254Z,2.55
2023-09-07T11:28:23.883Z,2.40
2023-09-07T11:30:54.402Z,2.33
2023-09-07T11:33:23.513Z,2.30
2023-09-07T11:35:51.658Z,2.50
2023-09-07T11:38:20.413Z,2.60
2023-09-07T11:40:48.905Z,2.53
2023-09-07T11:43:18.048Z,2.90
2023-09-07T11:45:48.097Z,2.60
2023-09-07T11:48:17.537Z,2.65
2023-09-07T11:50:45.624Z,2.58
2023-09-07T11:53:13.771Z,2.60
2023-09-07T11:55:44.501Z,2.53
2023-09-07T11:58:12.430Z,2.47
2023-09-07T12:00:42.068Z,2.67
2023-09-07T12:03:10.065Z,2.50
2023-09-07T12:05:41.064Z,2.72
2023-09-07T12:08:09.139Z,2.50
2023-09-07T12:10:37.102Z,2.63
2023-09-07T12:13:05.388Z,2.80
2023-09-07T12:15:33.387Z,2.97
2023-09-07T12:18:01.753Z,2.65
2023-09-07T12:20:29.910Z,2.55
2023-09-07T12:22:59.238Z,2.58
2023-09-07T12:25:27.722Z,3.00
2023-09-07T12:27:56.031Z,3.05
2023-09-07T12:30:25.357Z,2.80
2023-09-07T12:32:53.835Z,2.83
2023-09-07T12:35:22.251Z,2.88
2023-09-07T12:37:50.202Z,2.63
2023-09-07T12:40:19.541Z,2.95
2023-09-07T12:42:48.534Z,3.10
2023-09-07T12:45:16.720Z,3.03
2023-09-07T12:47:44.819Z,3.25
2023-09-07T12:50:13.331Z,3.03
2023-09-07T12:52:41.370Z,2.95
2023-09-07T12:55:09.874Z,2.90
2023-09-07T12:57:39.230Z,2.67
2023-09-07T13:00:08.465Z,3.10
2023-09-07T13:02:36.536Z,2.72
2023-09-07T13:05:06.540Z,2.90
2023-09-07T13:07:35.652Z,2.78
2023-09-07T13:10:05.364Z,2.78
2023-09-07T13:12:33.767Z,3.08
2023-09-07T13:15:03.726Z,3.03
2023-09-07T13:17:32.018Z,2.85
2023-09-07T13:19:59.986Z,3.00
2023-09-07T13:22:27.970Z,3.40
2023-09-07T13:24:55.992Z,2.50
2023-09-07T13:27:23.975Z,2.72
2023-09-07T13:29:51.995Z,2.60
2023-09-07T13:32:21.418Z,2.67
2023-09-07T13:34:49.392Z,2.53
2023-09-07T13:37:17.395Z,2.72
2023-09-07T13:39:45.404Z,2.72
2023-09-07T13:42:13.386Z,2.78
2023-09-07T13:44:41.702Z,2.88
2023-09-07T13:47:09.977Z,2.65
2023-09-07T13:49:39.360Z,2.75
2023-09-07T13:52:07.857Z,2.42
2023-09-07T13:54:35.799Z,2.75
2023-09-07T13:57:03.778Z,3.00
2023-09-07T13:59:34.449Z,2.67
2023-09-07T14:02:02.541Z,2.90
2023-09-07T14:04:32.157Z,2.70
2023-09-07T14:07:01.529Z,2.47
2023-09-07T14:09:29.694Z,2.72
2023-09-07T14:11:57.647Z,2.63
2023-09-07T14:14:25.641Z,2.70
2023-09-07T14:16:58.082Z,2.67
2023-09-07T14:19:28.633Z,2.58
2023-09-07T14:21:56.583Z,2.78
2023-09-07T14:24:26.129Z,2.42
2023-09-07T14:26:53.241Z,2.85
2023-09-07T14:29:21.253Z,3.00
2023-09-07T14:31:49.193Z,2.90
2023-09-07T14:34:17.142Z,2.67
2023-09-07T14:36:45.148Z,2.72
2023-09-07T14:39:13.366Z,2.92
2023-09-07T14:41:44.367Z,3.20
2023-09-07T14:44:12.297Z,2.78
2023-09-07T14:46:40.342Z,3.13
2023-09-07T14:49:08.335Z,2.65
2023-09-07T14:51:36.283Z,2.95
2023-09-07T14:54:04.227Z,2.70
2023-09-07T14:56:36.389Z,2.78
2023-09-07T14:59:05.931Z,2.63
2023-09-07T15:01:34.173Z,2.70
2023-09-07T15:04:02.221Z,2.90
2023-09-07T15:06:32.082Z,2.90
2023-09-07T15:09:00.821Z,2.90
2023-09-07T15:11:28.901Z,2.67
2023-09-07T15:13:56.979Z,2.75
2023-09-07T15:16:26.584Z,3.00
2023-09-07T15:18:54.809Z,3.22
2023-09-07T15:21:23.069Z,2.80
2023-09-07T15:23:51.002Z,2.90
2023-09-07T15:26:19.011Z,3.17
2023-09-07T15:28:47.058Z,3.25
2023-09-07T15:31:15.093Z,2.60
2023-09-07T15:33:44.506Z,3.03
2023-09-07T15:36:14.683Z,2.97
2023-09-07T15:38:42.905Z,3.00
2023-09-07T15:41:10.956Z,2.47
2023-09-07T15:43:38.976Z,2.80
2023-09-07T15:46:07.016Z,2.90
2023-09-07T15:48:35.402Z,2.50
2023-09-07T15:51:05.049Z,2.88
2023-09-07T15:53:34.742Z,2.78
2023-09-07T15:56:03.001Z,2.65
2023-09-07T15:58:31.422Z,2.90
2023-09-07T16:00:59.776Z,2.90
2023-09-07T16:03:27.790Z,2.53
2023-09-07T16:05:55.758Z,2.53
2023-09-07T16:08:26.858Z,3.10
2023-09-07T16:10:56.899Z,2.65
2023-09-07T16:13:24.917Z,2.65
2023-09-07T16:15:52.895Z,2.60
2023-09-07T16:18:21.357Z,3.33
2023-09-07T16:20:50.354Z,2.55
2023-09-07T16:23:18.397Z,2.60
2023-09-07T16:25:48.933Z,2.90
2023-09-07T16:28:17.972Z,2.50
2023-09-07T16:30:47.286Z,2.50
2023-09-07T16:33:15.296Z,2.70
2023-09-07T16:35:43.617Z,2.67
2023-09-07T16:38:11.687Z,3.03
2023-09-07T16:40:40.185Z,2.47
2023-09-07T16:43:09.616Z,2.80
2023-09-07T16:45:37.643Z,3.10
2023-09-07T16:48:06.277Z,2.47
2023-09-07T16:50:34.322Z,2.90
2023-09-07T16:53:02.312Z,3.00
2023-09-07T16:55:30.592Z,3.00
2023-09-07T16:57:58.714Z,2.50
2023-09-07T17:00:28.061Z,2.85
2023-09-07T17:02:56.181Z,2.65
2023-09-07T17:05:24.418Z,2.50
2023-09-07T17:07:52.368Z,2.65
2023-09-07T17:10:20.486Z,2.70
2023-09-07T17:12:48.422Z,2.80
2023-09-07T17:15:16.493Z,2.60
2023-09-07T17:17:45.870Z,2.65
2023-09-07T17:20:14.825Z,2.53
2023-09-07T17:22:46.862Z,2.50
2023-09-07T17:25:14.993Z,2.55
2023-09-07T17:27:43.770Z,2.63
2023-09-07T17:30:12.208Z,2.35
2023-09-07T17:32:40.410Z,2.92
2023-09-07T17:35:10.180Z,2.85
2023-09-07T17:37:38.143Z,2.53
2023-09-07T17:40:07.370Z,2.63
2023-09-07T17:42:35.468Z,2.38
2023-09-07T17:45:03.404Z,2.70
2023-09-07T17:47:31.441Z,2.60
2023-09-07T17:49:59.510Z,3.03
2023-09-07T17:52:28.877Z,2.47
2023-09-07T17:54:56.876Z,2.47
2023-09-07T17:57:24.873Z,2.50
2023-09-07T17:59:53.418Z,2.85
2023-09-07T18:02:23.491Z,2.40
2023-09-07T18:04:52.496Z,2.60
2023-09-07T18:07:20.576Z,2.40
2023-09-07T18:09:49.957Z,2.83
2023-09-07T18:12:17.930Z,2.85
2023-09-07T18:14:46.032Z,2.65
2023-09-07T18:17:13.994Z,2.38
2023-09-07T18:19:41.972Z,2.80
2023-09-07T18:22:11.086Z,2.63
2023-09-07T18:24:39.421Z,3.15
2023-09-07T18:27:08.908Z,2.72
2023-09-07T18:29:36.858Z,2.60
2023-09-07T18:32:05.033Z,2.92
2023-09-07T18:34:34.740Z,2.50
2023-09-07T18:37:02.838Z,2.72
2023-09-07T18:39:30.849Z,2.63
2023-09-07T18:41:59.052Z,2.60
2023-09-07T18:44:29.008Z,2.42
2023-09-07T18:46:57.008Z,2.45
2023-09-07T18:49:25.712Z,2.80
2023-09-07T18:51:53.645Z,2.63
2023-09-07T18:54:21.635Z,2.90
2023-09-07T18:56:49.779Z,2.90
2023-09-07T18:59:18.542Z,2.72
2023-09-07T19:01:49.890Z,2.63
2023-09-07T19:04:17.922Z,2.33
2023-09-07T19:06:45.871Z,3.00
2023-09-07T19:09:13.855Z,3.00
2023-09-07T19:11:41.798Z,2.80
2023-09-07T19:14:09.767Z,3.00
2023-09-07T19:16:37.835Z,2.50
2023-09-07T19:19:07.456Z,2.85
2023-09-07T19:21:35.887Z,2.90
2023-09-07T19:24:04.052Z,2.72
2023-09-07T19:26:33.488Z,2.85
2023-09-07T19:29:04.516Z,2.72
2023-09-07T19:31:33.543Z,3.05
2023-09-07T19:34:02.494Z,2.63
2023-09-07T19:36:32.865Z,2.50
2023-09-07T19:39:01.795Z,2.60
2023-09-07T19:41:30.473Z,2.70
2023-09-07T19:43:59.025Z,2.88
2023-09-07T19:46:27.095Z,3.08
2023-09-07T19:48:55.552Z,2.95
2023-09-07T19:51:24.557Z,2.60
2023-09-07T19:53:53.939Z,2.83
2023-09-07T19:56:24.906Z,3.13
2023-09-07T19:58:54.478Z,3.00
2023-09-07T20:01:23.288Z,2.88
2023-09-07T20:03:54.704Z,3.00
2023-09-07T20:06:26.133Z,3.30
2023-09-07T20:08:55.919Z,3.03
2023-09-07T20:11:23.988Z,2.85
2023-09-07T20:13:52.075Z,2.55
2023-09-07T20:16:20.181Z,2.63
2023-09-07T20:18:48.235Z,3.22
2023-09-07T20:21:16.317Z,2.90
2023-09-07T20:23:44.369Z,2.72
2023-09-07T20:26:14.075Z,2.70
2023-09-07T20:28:44.010Z,2.70
2023-09-07T20:31:12.369Z,2.70
2023-09-07T20:33:40.530Z,3.15
2023-09-07T20:36:09.130Z,3.10
2023-09-07T20:38:37.880Z,2.67
2023-09-07T20:41:06.224Z,2.50
2023-09-07T20:43:38.808Z,3.75
2023-09-07T20:46:07.830Z,3.03
2023-09-07T20:48:36.199Z,3.40
2023-09-07T20:51:05.850Z,2.60
2023-09-07T20:53:34.210Z,2.90
2023-09-07T20:56:02.188Z,2.85
2023-09-07T20:58:30.356Z,3.15
2023-09-07T21:01:03.678Z,3.00
2023-09-07T21:03:32.534Z,3.25
2023-09-07T21:06:00.972Z,2.88
2023-09-07T21:08:29.110Z,3.35
2023-09-07T21:10:57.138Z,2.80
2023-09-07T21:13:25.248Z,2.90
2023-09-07T21:15:53.211Z,2.97
2023-09-07T21:18:22.707Z,3.33
2023-09-07T21:20:50.684Z,2.67
2023-09-07T21:23:18.668Z,2.88
2023-09-07T21:25:46.670Z,2.78
2023-09-07T21:28:15.503Z,3.28
2023-09-07T21:30:43.537Z,2.83
2023-09-07T21:33:11.587Z,3.20
2023-09-07T21:35:40.988Z,3.42
2023-09-07T21:38:08.997Z,2.95
2023-09-07T21:40:37.374Z,3.20
2023-09-07T21:43:05.925Z,3.00
2023-09-07T21:45:33.979Z,3.08
2023-09-07T21:48:02.024Z,2.92
2023-09-07T21:50:30.036Z,2.83
2023-09-07T21:52:59.426Z,2.83
2023-09-07T21:55:27.469Z,2.97
2023-09-07T21:57:55.463Z,3.30
2023-09-07T22:00:23.551Z,3.38
2023-09-07T22:02:52.151Z,2.83
2023-09-07T22:05:20.384Z,2.83
2023-09-07T22:07:48.453Z,3.08
2023-09-07T22:10:17.831Z,3.22
2023-09-07T22:12:45.845Z,3.40
2023-09-07T22:15:13.911Z,2.85
2023-09-07T22:17:44.312Z,2.83
2023-09-07T22:20:12.585Z,3.10
2023-09-07T22:22:40.611Z,3.30
2023-09-07T22:25:09.297Z,3.40
2023-09-07T22:27:38.701Z,3.17
2023-09-07T22:30:08.324Z,3.50
2023-09-07T22:32:36.397Z,2.85
2023-09-07T22:35:05.903Z,2.90
2023-09-07T22:37:33.899Z,3.70
2023-09-07T22:40:01.885Z,3.55
2023-09-07T22:42:29.844Z,3.65
2023-09-07T22:44:59.245Z,3.03
2023-09-07T22:47:27.303Z,2.80
2023-09-07T22:49:55.389Z,3.17
2023-09-07T22:52:23.405Z,3.03
2023-09-07T22:54:51.388Z,3.20
2023-09-07T22:57:19.444Z,3.33
2023-09-07T22:59:47.573Z,3.15
2023-09-07T23:02:17.009Z,2.95
2023-09-07T23:04:45.190Z,3.03
2023-09-07T23:07:14.447Z,3.33
2023-09-07T23:09:43.938Z,3.00
2023-09-07T23:12:12.233Z,3.38
2023-09-07T23:14:40.647Z,3.10
2023-09-07T23:17:08.821Z,3.13
2023-09-07T23:19:38.322Z,3.08
2023-09-07T23:22:06.325Z,3.40
2023-09-07T23:24:34.361Z,3.40
2023-09-07T23:27:02.420Z,3.13
2023-09-07T23:29:30.473Z,2.97
2023-09-07T23:31:58.490Z,3.08
2023-09-07T23:34:28.358Z,3.75
2023-09-07T23:36:58.697Z,3.30
2023-09-07T23:39:26.748Z,3.25
2023-09-07T23:41:54.728Z,3.83
2023-09-07T23:44:22.956Z,3.00
2023-09-07T23:46:50.913Z,3.10
2023-09-07T23:49:18.961Z,3.30
2023-09-07T23:51:46.955Z,3.10
2023-09-07T23:54:17.293Z,3.10
2023-09-07T23:56:45.241Z,3.35
2023-09-07T23:59:13.195Z,3.08
